createdAt,value
2017-12-02T00:00:55.156Z,79.18
2017-12-02T00:03:22.673Z,68.18
2017-12-02T00:05:50.199Z,91.68
2017-12-02T00:08:17.787Z,80.72
2017-12-02T00:10:45.317Z,76.40
2017-12-02T00:13:12.823Z,79.72
2017-12-02T00:15:40.621Z,78.07
2017-12-02T00:18:08.176Z,85.55
2017-12-02T00:20:35.696Z,79.95
2017-12-02T00:23:03.270Z,72.78
2017-12-02T00:25:30.795Z,82.18
2017-12-02T00:27:58.330Z,81.28
2017-12-02T00:30:25.903Z,83.65
2017-12-02T00:32:53.449Z,82.30
2017-12-02T00:35:21.009Z,83.30
2017-12-02T00:37:48.567Z,83.28
2017-12-02T00:40:16.082Z,82.60
2017-12-02T00:42:43.607Z,97.78
2017-12-02T00:45:11.294Z,78.95
2017-12-02T00:47:38.814Z,77.10
2017-12-02T00:50:06.363Z,74.70
2017-12-02T00:52:33.924Z,83.25
2017-12-02T00:55:01.480Z,69.93
2017-12-02T00:57:29.003Z,80.07
2017-12-02T00:59:56.908Z,88.32
2017-12-02T01:02:24.466Z,90.15
2017-12-02T01:04:52.078Z,93.57
2017-12-02T01:07:19.636Z,77.50
2017-12-02T01:09:47.154Z,84.37
2017-12-02T01:12:14.703Z,85.30
2017-12-02T01:14:42.287Z,87.05
2017-12-02T01:17:09.798Z,88.60
2017-12-02T01:19:37.323Z,98.45
2017-12-02T01:22:04.942Z,81.63
2017-12-02T01:24:32.498Z,85.97
2017-12-02T01:27:00.058Z,86.07
2017-12-02T01:29:27.718Z,87.53
2017-12-02T01:31:55.231Z,86.72
2017-12-02T01:34:22.763Z,82.15
2017-12-02T01:36:50.478Z,96.43
2017-12-02T01:39:18.366Z,94.62
2017-12-02T01:41:45.906Z,96.20
2017-12-02T01:44:13.586Z,87.28
2017-12-02T01:46:41.100Z,82.82
2017-12-02T01:49:08.618Z,88.82
2017-12-02T01:51:36.468Z,86.37
2017-12-02T01:54:03.983Z,104.43
2017-12-02T01:56:31.505Z,99.78
2017-12-02T01:58:59.081Z,86.32
2017-12-02T02:01:26.603Z,89.68
2017-12-02T02:03:54.160Z,109.93
2017-12-02T02:06:21.851Z,113.12
2017-12-02T02:08:49.370Z,138.52
2017-12-02T02:11:16.894Z,100.55
2017-12-02T02:13:44.603Z,90.82
2017-12-02T02:16:12.162Z,92.50
2017-12-02T02:18:39.675Z,95.50
2017-12-02T02:21:07.484Z,89.68
2017-12-02T02:23:35.044Z,140.02
2017-12-02T02:26:02.605Z,92.95
2017-12-02T02:28:30.351Z,278.23
2017-12-02T02:30:57.876Z,119.47
2017-12-02T02:33:25.406Z,111.28
2017-12-02T02:35:52.961Z,119.80
2017-12-02T02:38:20.483Z,108.85
2017-12-02T02:40:48.010Z,147.25
2017-12-02T02:43:15.730Z,226.37
2017-12-02T02:45:43.254Z,99.50
2017-12-02T02:48:10.778Z,153.43
2017-12-02T02:50:38.327Z,92.32
2017-12-02T02:53:05.850Z,128.93
2017-12-02T02:55:33.370Z,142.57
2017-12-02T02:58:00.976Z,99.43
2017-12-02T03:00:28.534Z,319.85
2017-12-02T03:02:56.195Z,97.82
2017-12-02T03:05:23.804Z,173.35
2017-12-02T03:07:51.331Z,195.02
2017-12-02T03:10:18.874Z,225.40
2017-12-02T03:12:46.682Z,264.63
2017-12-02T03:15:14.199Z,341.35
2017-12-02T03:17:41.758Z,184.02
2017-12-02T03:20:09.704Z,490.80
2017-12-02T03:22:37.283Z,248.10
2017-12-02T03:25:04.843Z,134.98
2017-12-02T03:27:32.790Z,98.12
2017-12-02T03:30:00.307Z,218.88
2017-12-02T03:32:27.822Z,99.95
2017-12-02T03:34:55.790Z,100.20
2017-12-02T03:37:23.356Z,133.27
2017-12-02T03:39:50.914Z,93.43
2017-12-02T03:42:18.554Z,123.78
2017-12-02T03:44:46.133Z,100.30
2017-12-02T03:47:13.799Z,258.08
2017-12-02T03:49:41.661Z,210.40
2017-12-02T03:52:09.259Z,117.40
2017-12-02T03:54:36.803Z,81.05
2017-12-02T03:57:04.606Z,132.18
2017-12-02T03:59:32.205Z,74.37
2017-12-02T04:01:59.717Z,157.77
2017-12-02T04:04:27.631Z,131.87
2017-12-02T04:06:55.195Z,135.00
2017-12-02T04:09:22.750Z,225.95
2017-12-02T04:11:50.513Z,169.57
2017-12-02T04:14:18.071Z,173.62
2017-12-02T04:16:45.590Z,116.35
2017-12-02T04:19:13.191Z,106.25
2017-12-02T04:21:40.749Z,103.05
2017-12-02T04:24:08.274Z,90.12
2017-12-02T04:26:35.868Z,80.72
2017-12-02T04:29:03.385Z,75.78
2017-12-02T04:31:30.903Z,84.32
2017-12-02T04:33:58.500Z,69.43
2017-12-02T04:36:26.027Z,67.43
2017-12-02T04:38:53.560Z,69.85
2017-12-02T04:41:21.298Z,99.70
2017-12-02T04:43:49.292Z,80.03
2017-12-02T04:46:16.807Z,98.65
2017-12-02T04:48:44.355Z,92.50
2017-12-02T04:51:11.866Z,93.35
2017-12-02T04:53:39.374Z,115.57
2017-12-02T04:56:06.922Z,132.27
2017-12-02T04:58:34.443Z,95.30
2017-12-02T05:01:02.330Z,127.15
2017-12-02T05:03:29.896Z,162.80
2017-12-02T05:05:57.419Z,103.85
2017-12-02T05:08:24.990Z,118.50
2017-12-02T05:10:52.546Z,121.20
2017-12-02T05:13:20.106Z,227.25
2017-12-02T05:15:48.074Z,104.20
2017-12-02T05:18:15.818Z,129.60
2017-12-02T05:20:43.342Z,188.43
2017-12-02T05:23:10.869Z,154.80
2017-12-02T05:25:38.618Z,371.37
2017-12-02T05:28:06.136Z,104.53
2017-12-02T05:30:33.736Z,165.10
2017-12-02T05:33:01.601Z,165.73
2017-12-02T05:35:29.161Z,100.85
2017-12-02T05:37:56.720Z,160.95
2017-12-02T05:40:24.291Z,110.37
2017-12-02T05:42:51.814Z,175.82
2017-12-02T05:45:19.334Z,169.62
2017-12-02T05:47:46.905Z,107.07
2017-12-02T05:50:14.422Z,168.65
2017-12-02T05:52:41.980Z,142.45
2017-12-02T05:55:09.556Z,82.62
2017-12-02T05:57:37.078Z,126.15
2017-12-02T06:00:04.677Z,269.80
2017-12-02T06:02:32.229Z,140.98
2017-12-02T06:04:59.768Z,154.07
2017-12-02T06:07:27.326Z,191.95
2017-12-02T06:09:55.070Z,182.98
2017-12-02T06:12:22.599Z,266.83
2017-12-02T06:14:50.986Z,180.35
2017-12-02T06:17:18.705Z,255.30
2017-12-02T06:19:46.249Z,154.75
2017-12-02T06:22:13.770Z,275.35
2017-12-02T06:24:41.319Z,199.98
2017-12-02T06:27:08.852Z,283.77
2017-12-02T06:29:36.373Z,198.82
2017-12-02T06:32:04.146Z,261.17
2017-12-02T06:34:31.666Z,170.25
2017-12-02T06:36:59.199Z,158.63
2017-12-02T06:39:27.050Z,162.70
2017-12-02T06:41:54.571Z,83.43
2017-12-02T06:44:22.197Z,88.70
2017-12-02T06:46:49.777Z,87.72
2017-12-02T06:49:17.294Z,103.53
2017-12-02T06:51:44.826Z,95.75
2017-12-02T06:54:12.521Z,80.38
2017-12-02T06:56:40.037Z,78.40
2017-12-02T06:59:07.550Z,95.38
2017-12-02T07:01:35.097Z,80.55
2017-12-02T07:04:02.621Z,78.37
2017-12-02T07:06:30.142Z,93.18
2017-12-02T07:08:58.027Z,93.00
2017-12-02T07:11:25.559Z,84.78
2017-12-02T07:13:53.086Z,89.68
2017-12-02T07:16:20.742Z,74.93
2017-12-02T07:18:48.326Z,80.82
2017-12-02T07:21:15.840Z,86.37
2017-12-02T07:23:43.426Z,84.07
2017-12-02T07:26:10.942Z,92.12
2017-12-02T07:28:38.466Z,83.28
2017-12-02T07:31:06.113Z,105.60
2017-12-02T07:33:33.621Z,91.70
2017-12-02T07:36:01.147Z,103.43
2017-12-02T07:38:28.783Z,83.53
2017-12-02T07:40:56.300Z,74.82
2017-12-02T07:43:23.815Z,84.55
2017-12-02T07:45:51.519Z,82.30
2017-12-02T07:48:19.046Z,78.70
2017-12-02T07:50:46.566Z,77.78
2017-12-02T07:53:14.716Z,87.10
2017-12-02T07:55:42.252Z,76.45
2017-12-02T07:58:10.763Z,66.15
2017-12-02T08:00:38.428Z,54.20
2017-12-02T08:03:05.942Z,63.20
2017-12-02T08:05:33.500Z,64.50
2017-12-02T08:08:01.194Z,68.35
2017-12-02T08:10:28.718Z,63.47
2017-12-02T08:12:56.233Z,53.13
2017-12-02T08:15:23.938Z,60.95
2017-12-02T08:17:51.465Z,74.62
2017-12-02T08:20:19.002Z,82.65
2017-12-02T08:22:46.578Z,139.90
2017-12-02T08:25:14.150Z,93.60
2017-12-02T08:27:41.661Z,81.70
2017-12-02T08:30:09.554Z,75.62
2017-12-02T08:32:37.102Z,64.22
2017-12-02T08:35:04.688Z,70.03
2017-12-02T08:37:32.301Z,60.10
2017-12-02T08:39:59.882Z,55.78
2017-12-02T08:42:27.402Z,55.70
2017-12-02T08:44:55.309Z,57.53
2017-12-02T08:47:22.830Z,64.87
2017-12-02T08:49:50.355Z,67.40
2017-12-02T08:52:17.903Z,68.12
2017-12-02T08:54:45.475Z,65.87
2017-12-02T08:57:13.101Z,59.40
2017-12-02T08:59:40.732Z,55.70
2017-12-02T09:02:08.423Z,51.75
2017-12-02T09:04:36.067Z,55.75
2017-12-02T09:07:03.965Z,59.38
2017-12-02T09:09:31.570Z,60.25
2017-12-02T09:11:59.108Z,54.65
2017-12-02T09:14:26.939Z,52.33
2017-12-02T09:16:54.619Z,53.58
2017-12-02T09:19:22.364Z,51.13
2017-12-02T09:21:50.331Z,45.80
2017-12-02T09:24:17.905Z,56.10
2017-12-02T09:26:45.449Z,48.78
2017-12-02T09:29:13.018Z,49.80
2017-12-02T09:31:40.773Z,61.85
2017-12-02T09:34:08.327Z,51.47
2017-12-02T09:36:35.894Z,47.13
2017-12-02T09:39:03.468Z,47.78
2017-12-02T09:41:31.015Z,46.25
2017-12-02T09:43:58.899Z,58.90
2017-12-02T09:46:26.765Z,63.75
2017-12-02T09:48:54.350Z,42.75
2017-12-02T09:51:22.290Z,50.70
2017-12-02T09:53:49.828Z,45.83
2017-12-02T09:56:17.381Z,51.17
2017-12-02T09:58:44.991Z,44.65
2017-12-02T10:01:12.712Z,53.90
2017-12-02T10:03:40.496Z,54.67
2017-12-02T10:06:08.359Z,46.40
2017-12-02T10:08:35.894Z,58.65
2017-12-02T10:11:03.481Z,60.15
2017-12-02T10:13:31.082Z,60.95
2017-12-02T10:15:58.598Z,59.33
2017-12-02T10:18:26.154Z,61.78
2017-12-02T10:20:53.727Z,68.25
2017-12-02T10:23:21.362Z,63.22
2017-12-02T10:25:48.915Z,57.50
2017-12-02T10:28:16.662Z,55.47
2017-12-02T10:30:44.198Z,64.32
2017-12-02T10:33:11.902Z,58.35
2017-12-02T10:35:39.786Z,61.78
2017-12-02T10:38:07.637Z,61.45
2017-12-02T10:40:35.241Z,58.83
2017-12-02T10:43:03.133Z,55.63
2017-12-02T10:45:30.866Z,54.95
2017-12-02T10:47:58.736Z,54.88
2017-12-02T10:50:26.898Z,56.92
2017-12-02T10:52:55.624Z,56.78
2017-12-02T10:55:23.517Z,53.20
2017-12-02T10:57:51.997Z,50.72
2017-12-02T11:00:19.994Z,44.10
2017-12-02T11:02:47.882Z,51.42
2017-12-02T11:05:16.006Z,51.28
2017-12-02T11:07:43.623Z,49.78
2017-12-02T11:10:11.204Z,52.88
2017-12-02T11:12:39.292Z,48.50
2017-12-02T11:15:06.857Z,67.43
2017-12-02T11:17:34.638Z,48.97
2017-12-02T11:20:03.518Z,42.97
2017-12-02T11:22:31.135Z,59.05
2017-12-02T11:24:58.753Z,48.40
2017-12-02T11:27:26.495Z,59.70
2017-12-02T11:29:54.055Z,52.10
2017-12-02T11:32:21.573Z,52.00
2017-12-02T11:34:49.489Z,54.35
2017-12-02T11:37:17.043Z,55.10
2017-12-02T11:39:44.604Z,62.80
2017-12-02T11:42:12.350Z,53.17
2017-12-02T11:44:39.871Z,45.70
2017-12-02T11:47:07.583Z,52.00
2017-12-02T11:49:35.141Z,63.28
2017-12-02T11:52:02.704Z,68.55
2017-12-02T11:54:30.260Z,43.10
2017-12-02T11:56:57.954Z,50.60
2017-12-02T11:59:25.481Z,63.00
2017-12-02T12:01:53.039Z,58.78
2017-12-02T12:04:20.804Z,53.80
2017-12-02T12:06:48.365Z,57.55
2017-12-02T12:09:15.925Z,61.65
2017-12-02T12:11:43.622Z,59.00
2017-12-02T12:14:11.190Z,62.30
2017-12-02T12:16:38.713Z,63.45
2017-12-02T12:19:06.294Z,61.08
2017-12-02T12:21:34.082Z,61.30
2017-12-02T12:24:01.688Z,46.67
2017-12-02T12:26:29.348Z,54.13
2017-12-02T12:28:56.866Z,51.58
2017-12-02T12:31:24.741Z,56.60
2017-12-02T12:33:52.333Z,57.88
2017-12-02T12:36:19.860Z,57.00
2017-12-02T12:38:47.378Z,61.10
2017-12-02T12:41:15.094Z,58.20
2017-12-02T12:43:42.614Z,51.92
2017-12-02T12:46:10.128Z,58.47
2017-12-02T12:48:37.993Z,55.42
2017-12-02T12:51:05.552Z,57.67
2017-12-02T12:53:33.116Z,59.45
2017-12-02T12:56:00.866Z,48.80
2017-12-02T12:58:28.378Z,47.75
2017-12-02T13:00:56.108Z,49.72
2017-12-02T13:03:23.838Z,48.50
2017-12-02T13:05:51.357Z,43.60
2017-12-02T13:08:18.926Z,49.80
2017-12-02T13:10:46.539Z,51.42
2017-12-02T13:13:14.097Z,47.28
2017-12-02T13:15:41.622Z,44.95
2017-12-02T13:18:09.214Z,48.08
2017-12-02T13:20:36.978Z,41.10
2017-12-02T13:23:04.510Z,48.28
2017-12-02T13:25:32.609Z,43.20
2017-12-02T13:28:00.157Z,47.97
2017-12-02T13:30:27.674Z,47.70
2017-12-02T13:32:55.225Z,56.17
2017-12-02T13:35:23.050Z,56.47
2017-12-02T13:37:50.574Z,46.72
2017-12-02T13:40:18.460Z,51.30
2017-12-02T13:42:46.118Z,42.47
2017-12-02T13:45:13.692Z,43.65
2017-12-02T13:47:41.386Z,45.05
2017-12-02T13:50:08.920Z,46.25
2017-12-02T13:52:36.884Z,53.58
2017-12-02T13:55:04.547Z,44.13
2017-12-02T13:57:32.160Z,51.70
2017-12-02T13:59:59.662Z,46.67
2017-12-02T14:02:27.474Z,56.80
2017-12-02T14:04:55.036Z,53.85
2017-12-02T14:07:22.550Z,51.97
2017-12-02T14:09:50.244Z,48.42
2017-12-02T14:12:18.687Z,54.20
2017-12-02T14:14:46.245Z,54.42
2017-12-02T14:17:14.985Z,54.60
2017-12-02T14:19:43.825Z,57.55
2017-12-02T14:22:11.382Z,59.67
2017-12-02T14:24:39.759Z,59.55
2017-12-02T14:27:07.311Z,67.47
2017-12-02T14:29:34.979Z,51.55
2017-12-02T14:32:03.579Z,62.78
2017-12-02T14:34:31.123Z,66.78
2017-12-02T14:36:58.783Z,47.62
2017-12-02T14:39:26.447Z,52.58
2017-12-02T14:41:54.955Z,65.10
2017-12-02T14:44:22.466Z,59.72
2017-12-02T14:46:50.232Z,59.15
2017-12-02T14:49:17.759Z,60.63
2017-12-02T14:51:45.984Z,53.70
2017-12-02T14:54:14.089Z,57.58
2017-12-02T14:56:42.252Z,60.30
2017-12-02T14:59:09.817Z,71.95
2017-12-02T15:01:37.715Z,80.72
2017-12-02T15:04:05.345Z,69.93
2017-12-02T15:06:32.871Z,63.75
2017-12-02T15:09:01.590Z,82.95
2017-12-02T15:11:29.129Z,59.13
2017-12-02T15:13:56.982Z,51.72
2017-12-02T15:16:25.694Z,61.85
2017-12-02T15:18:53.534Z,65.40
2017-12-02T15:21:21.299Z,65.32
2017-12-02T15:23:49.369Z,78.45
2017-12-02T15:26:17.030Z,83.87
2017-12-02T15:28:45.726Z,77.25
2017-12-02T15:31:13.971Z,66.55
2017-12-02T15:33:41.801Z,54.30
2017-12-02T15:36:11.894Z,84.05
2017-12-02T15:38:41.203Z,54.95
2017-12-02T15:41:09.249Z,68.93
2017-12-02T15:43:37.981Z,59.15
2017-12-02T15:46:07.454Z,63.42
2017-12-02T15:48:36.022Z,57.15
2017-12-02T15:51:04.603Z,66.80
2017-12-02T15:53:32.572Z,58.92
2017-12-02T15:56:00.337Z,67.70
2017-12-02T15:58:28.099Z,73.03
2017-12-02T16:00:58.033Z,62.55
2017-12-02T16:03:25.858Z,63.42
2017-12-02T16:05:53.562Z,66.18
2017-12-02T16:08:21.236Z,65.32
2017-12-02T16:10:48.971Z,62.83
2017-12-02T16:13:17.461Z,64.07
2017-12-02T16:15:45.018Z,61.17
2017-12-02T16:18:12.615Z,56.65
2017-12-02T16:20:40.162Z,65.35
2017-12-02T16:23:07.742Z,74.28
2017-12-02T16:25:35.347Z,63.33
2017-12-02T16:28:03.009Z,77.80
2017-12-02T16:30:30.976Z,59.22
2017-12-02T16:32:58.486Z,62.45
2017-12-02T16:35:26.015Z,64.30
2017-12-02T16:37:53.565Z,56.47
2017-12-02T16:40:21.112Z,61.45
2017-12-02T16:42:48.669Z,58.78
2017-12-02T16:45:16.238Z,61.35
2017-12-02T16:47:43.782Z,56.67
2017-12-02T16:50:11.398Z,65.10
2017-12-02T16:52:39.213Z,71.65
2017-12-02T16:55:06.739Z,57.62
2017-12-02T16:57:34.282Z,61.60
2017-12-02T17:00:02.073Z,65.10
2017-12-02T17:02:29.635Z,67.62
2017-12-02T17:04:57.154Z,61.78
2017-12-02T17:07:24.775Z,64.03
2017-12-02T17:09:52.336Z,60.92
2017-12-02T17:12:19.898Z,63.08
2017-12-02T17:14:47.633Z,60.08
2017-12-02T17:17:15.214Z,63.90
2017-12-02T17:19:42.725Z,60.40
2017-12-02T17:22:10.411Z,58.65
2017-12-02T17:24:37.963Z,48.58
2017-12-02T17:27:05.548Z,57.28
2017-12-02T17:29:33.294Z,49.80
2017-12-02T17:32:00.810Z,49.08
2017-12-02T17:34:28.351Z,57.75
2017-12-02T17:36:56.010Z,52.75
2017-12-02T17:39:23.555Z,51.78
2017-12-02T17:41:51.112Z,41.58
2017-12-02T17:44:18.858Z,47.28
2017-12-02T17:46:46.435Z,36.97
2017-12-02T17:49:13.995Z,54.60
2017-12-02T17:51:41.942Z,55.38
2017-12-02T17:54:09.461Z,55.75
2017-12-02T17:56:37.036Z,48.40
2017-12-02T17:59:04.646Z,46.95
2017-12-02T18:01:32.226Z,44.83
2017-12-02T18:04:00.016Z,51.78
2017-12-02T18:06:27.951Z,56.33
2017-12-02T18:08:55.552Z,58.58
2017-12-02T18:11:23.150Z,59.70
2017-12-02T18:13:50.834Z,53.33
2017-12-02T18:16:18.477Z,47.60
2017-12-02T18:18:46.105Z,49.40
2017-12-02T18:21:13.696Z,43.22
2017-12-02T18:23:41.268Z,47.60
2017-12-02T18:26:09.651Z,48.45
2017-12-02T18:28:37.818Z,46.30
2017-12-02T18:31:05.374Z,43.40
2017-12-02T18:33:33.131Z,48.35
2017-12-02T18:36:01.425Z,53.97
2017-12-02T18:38:29.162Z,58.58
2017-12-02T18:40:56.877Z,43.00
2017-12-02T18:43:24.759Z,43.45
2017-12-02T18:45:52.752Z,49.25
2017-12-02T18:48:20.319Z,55.53
2017-12-02T18:50:48.400Z,52.35
2017-12-02T18:53:18.034Z,47.25
2017-12-02T18:55:45.570Z,46.83
2017-12-02T18:58:13.537Z,47.47
2017-12-02T19:00:41.912Z,51.58
2017-12-02T19:03:09.614Z,43.70
2017-12-02T19:05:37.815Z,50.53
2017-12-02T19:08:05.353Z,52.53
2017-12-02T19:10:32.910Z,56.25
2017-12-02T19:13:01.636Z,63.55
2017-12-02T19:15:29.390Z,67.50
2017-12-02T19:17:58.306Z,59.85
2017-12-02T19:20:27.607Z,64.57
2017-12-02T19:22:55.389Z,60.20
2017-12-02T19:25:23.647Z,57.40
2017-12-02T19:27:51.238Z,57.95
2017-12-02T19:30:18.970Z,68.30
2017-12-02T19:32:46.765Z,56.50
2017-12-02T19:35:14.599Z,64.35
2017-12-02T19:37:43.185Z,65.57
2017-12-02T19:40:11.743Z,67.43
2017-12-02T19:42:39.644Z,63.30
2017-12-02T19:45:07.499Z,72.68
2017-12-02T19:47:36.084Z,74.15
2017-12-02T19:50:04.703Z,80.75
2017-12-02T19:52:34.581Z,77.20
2017-12-02T19:55:02.196Z,68.05
2017-12-02T19:57:30.575Z,75.00
2017-12-02T19:59:58.240Z,68.72
2017-12-02T20:02:26.273Z,77.80
2017-12-02T20:04:54.442Z,79.12
2017-12-02T20:07:22.901Z,88.30
2017-12-02T20:09:51.488Z,71.97
2017-12-02T20:12:20.699Z,72.65
2017-12-02T20:14:48.624Z,67.07
2017-12-02T20:17:16.517Z,66.78
2017-12-02T20:19:45.310Z,79.70
2017-12-02T20:22:13.076Z,74.12
2017-12-02T20:24:42.121Z,77.85
2017-12-02T20:27:10.444Z,73.80
2017-12-02T20:29:38.311Z,84.62
2017-12-02T20:32:06.028Z,67.68
2017-12-02T20:34:34.178Z,83.32
2017-12-02T20:37:01.910Z,78.07
2017-12-02T20:39:29.572Z,76.47
2017-12-02T20:41:57.659Z,72.75
2017-12-02T20:44:25.718Z,71.75
2017-12-02T20:46:53.589Z,63.80
2017-12-02T20:49:21.671Z,75.93
2017-12-02T20:51:49.516Z,71.40
2017-12-02T20:54:18.370Z,63.45
2017-12-02T20:56:46.274Z,66.15
2017-12-02T20:59:14.847Z,69.05
2017-12-02T21:01:42.638Z,59.85
2017-12-02T21:04:10.654Z,76.70
2017-12-02T21:06:38.456Z,64.68
2017-12-02T21:09:06.300Z,73.90
2017-12-02T21:11:34.780Z,78.78
2017-12-02T21:14:02.822Z,67.47
2017-12-02T21:16:30.639Z,71.03
2017-12-02T21:18:58.317Z,71.87
2017-12-02T21:21:26.085Z,65.53
2017-12-02T21:23:53.930Z,69.22
2017-12-02T21:26:21.898Z,75.25
2017-12-02T21:28:49.572Z,86.10
2017-12-02T21:31:17.307Z,82.40
2017-12-02T21:33:46.126Z,81.12
2017-12-02T21:36:14.839Z,70.62
2017-12-02T21:38:42.460Z,71.68
2017-12-02T21:41:10.098Z,76.70
2017-12-02T21:43:37.884Z,77.68
2017-12-02T21:46:05.653Z,70.78
2017-12-02T21:48:33.498Z,80.82
2017-12-02T21:51:01.074Z,78.93
2017-12-02T21:53:28.838Z,77.32
2017-12-02T21:55:56.501Z,76.53
2017-12-02T21:58:24.468Z,71.70
2017-12-02T22:00:52.027Z,81.65
2017-12-02T22:03:19.985Z,74.47
2017-12-02T22:05:47.623Z,91.75
2017-12-02T22:08:15.320Z,70.62
2017-12-02T22:10:43.087Z,83.70
2017-12-02T22:13:10.862Z,74.28
2017-12-02T22:15:38.620Z,83.35
2017-12-02T22:18:06.376Z,87.47
2017-12-02T22:20:34.549Z,84.97
2017-12-02T22:23:02.117Z,73.10
2017-12-02T22:25:29.871Z,72.12
2017-12-02T22:27:57.652Z,76.07
2017-12-02T22:30:25.502Z,71.35
2017-12-02T22:32:53.730Z,72.78
2017-12-02T22:35:21.295Z,77.28
2017-12-02T22:37:50.227Z,83.40
2017-12-02T22:40:18.016Z,80.75
2017-12-02T22:42:45.980Z,96.93
2017-12-02T22:45:13.929Z,77.07
2017-12-02T22:47:41.684Z,82.20
2017-12-02T22:50:09.473Z,82.47
2017-12-02T22:52:38.664Z,85.30
2017-12-02T22:55:07.449Z,79.93
2017-12-02T22:57:36.129Z,73.60
2017-12-02T23:00:03.718Z,81.35
2017-12-02T23:02:31.624Z,86.40
2017-12-02T23:04:59.438Z,82.95
2017-12-02T23:07:27.734Z,86.68
2017-12-02T23:09:55.483Z,91.85
2017-12-02T23:12:23.058Z,81.57
2017-12-02T23:14:50.592Z,73.95
2017-12-02T23:17:18.427Z,86.45
2017-12-02T23:19:46.942Z,77.05
2017-12-02T23:22:14.572Z,86.45
2017-12-02T23:24:43.359Z,86.63
2017-12-02T23:27:11.868Z,74.97
2017-12-02T23:29:40.446Z,69.45
2017-12-02T23:32:08.049Z,67.30
2017-12-02T23:34:35.730Z,82.60
2017-12-02T23:37:03.343Z,85.18
2017-12-02T23:39:31.271Z,77.82
2017-12-02T23:41:58.782Z,80.43
2017-12-02T23:44:26.333Z,79.47
2017-12-02T23:46:54.171Z,76.75
2017-12-02T23:49:21.765Z,84.32
2017-12-02T23:51:49.301Z,77.62
2017-12-02T23:54:17.054Z,76.55
2017-12-02T23:56:44.613Z,89.78
2017-12-02T23:59:12.194Z,81.50
